Regal Princess — ZCEK6 — position and weather

sailwx.info

Track history (hours):
 
Tides and Currents Weather Stations Pressure Air Temp Water Temp Dewpoint Dewpoint Depression Visibility Wind Speed Wind Dir Waves Ship Positions

Regal Princess

Last reported at 2018-Dec-17 08:00 UTC. Time now 2018-Dec-17 20:07 UTC.
Position N 25°36' W 076°36'.

Length 330 m; draft 8.5 m.

Type: Passenger vessel. MMSI: 310674000.

Wind from 350 at 13 knots

Barometer 1017.2 mb
Air temperature 23.5 ° C
Visibility: greater than 10.8 NM
Dewpoint 16.9 ° C
Water temperature 25.5 ° C

Date/timePositionNaut miles runAvg speedWind from/ knotsBaromVisibWave heightAir tempDewpointWater temp
2018-Dec-17 08:00N 25°36' W 076°36'5513.8 350 / 131017.210.8 23.516.925.5
2018-Dec-17 04:00N 25°48' W 077°36'9821.9 310 / 91017.710.8 22.419.426.3
2018-Dec-16 23:31N 26°10' W 079°22'017.2
2018-Dec-16 23:30N 26°10' W 079°22'918.5
2018-Dec-16 23:00N 26°09' W 079°32'1019.4
2018-Dec-16 22:30N 26°08' W 079°43'1019.5
2018-Dec-16 22:00N 26°07' W 079°54'917.0
2018-Dec-16 21:30N 26°06' W 080°03'3 6.9
2018-Dec-16 21:00N 26°06' W 080°07'0 0.0
2018-Dec-16 20:30N 26°06' W 080°07'0 0.0
2018-Dec-16 20:00N 26°06' W 080°07'0 0.0
2018-Dec-16 19:30N 26°06' W 080°07'0 0.0
2018-Dec-16 19:00N 26°06' W 080°07'0 0.0
2018-Dec-16 18:30N 26°06' W 080°07'0 0.0
2018-Dec-16 17:48N 26°06' W 080°07'0 0.0
2018-Dec-16 17:18N 26°06' W 080°07'0 0.0
2018-Dec-16 16:51N 26°06' W 080°07'0 0.0
2018-Dec-16 16:24N 26°06' W 080°07'0 0.0
2018-Dec-16 15:54N 26°06' W 080°07'0 0.0
2018-Dec-16 15:30N 26°06' W 080°07'0 0.0
2018-Dec-16 14:51N 26°06' W 080°07'0 0.0
2018-Dec-16 14:24N 26°06' W 080°07'0 0.0
2018-Dec-16 13:54N 26°06' W 080°07'0 0.0
2018-Dec-16 13:27N 26°06' W 080°07'0 0.0
2018-Dec-16 12:57N 26°06' W 080°07'0 0.0
2018-Dec-16 12:30N 26°06' W 080°07'0 0.0
2018-Dec-16 11:57N 26°06' W 080°07'0 0.0
2018-Dec-16 11:27N 26°06' W 080°07'0 0.0
2018-Dec-16 10:57N 26°06' W 080°07'0 0.6
2018-Dec-16 10:30N 26°05' W 080°07'4 8.1
2018-Dec-16 10:00N 26°06' W 080°03'611.8
2018-Dec-16 09:30N 26°06' W 079°56'713.9
2018-Dec-16 09:00N 26°07' W 079°48'713.7
2018-Dec-16 08:30N 26°08' W 079°41'714.0
2018-Dec-16 08:00N 26°09' W 079°33'4275.6
2018-Dec-16 08:00N 26°06' W 079°30'612.0 310 / 91017.710.8 22.419.426.3
2018-Dec-16 07:29N 26°10' W 079°25'814.3
2018-Dec-16 06:57N 26°10' W 079°17'17314.4
2018-Dec-15 19:00N 25°24' W 076°12'44018.3 200 / 181017.610.8 26.523.625.7
2018-Dec-14 19:00N 21°42' W 069°18'21919.9 090 / 251019.810.8 27.022.626.6
2018-Dec-14 08:00N 19°54' W 065°54'9619.2 080 / 271018.310.8 25.522.426.8
2018-Dec-14 03:00N 19°00' W 064°30'2121.1 060 / 281022.510.8 26.821.126.8
2018-Dec-14 02:00N 18°50' W 064°11'1420.1
2018-Dec-14 01:18N 18°41' W 063°59'4619.9
2018-Dec-13 22:59N 18°11' W 063°22'1819.6
2018-Dec-13 22:03N 18°00' W 063°07'216.4
2018-Dec-13 21:55N 18°00' W 063°04'2 3.3
2018-Dec-13 21:26N 18°01' W 063°03'0 0.0
2018-Dec-13 20:44N 18°01' W 063°03'0 0.0
2018-Dec-13 20:17N 18°01' W 063°03'0 0.0
2018-Dec-13 19:59N 18°01' W 063°03'0 0.0
2018-Dec-13 19:29N 18°01' W 063°03'0 0.0
2018-Dec-13 18:59N 18°01' W 063°03'0 0.0
2018-Dec-13 18:17N 18°01' W 063°03'0 0.0
2018-Dec-13 17:50N 18°01' W 063°03'0 0.0
2018-Dec-13 17:20N 18°01' W 063°03'0 0.0
2018-Dec-13 16:53N 18°01' W 063°03'0 0.0
2018-Dec-13 16:05N 18°01' W 063°03'0 0.0
2018-Dec-13 15:53N 18°01' W 063°03'0 0.0
2018-Dec-13 15:23N 18°01' W 063°03'0 0.0
2018-Dec-13 14:23N 18°01' W 063°03'0 0.0
2018-Dec-13 13:53N 18°01' W 063°03'0 0.0
2018-Dec-13 12:56N 18°01' W 063°03'0 0.0
2018-Dec-13 11:56N 18°01' W 063°03'0 0.0
2018-Dec-13 11:23N 18°01' W 063°03'0 0.0
2018-Dec-13 10:59N 18°01' W 063°03'0 0.4
2018-Dec-13 10:30N 18°00' W 063°03'5 7.4
2018-Dec-13 09:49N 17°60' W 063°08'1214.3
2018-Dec-13 08:57N 18°01' W 063°21'1514.2
2018-Dec-13 07:54N 18°03' W 063°37'1112.1
2018-Dec-13 07:00N 18°00' W 063°48'5514.7 080 / 201015.410.8 26.019.027.0
2018-Dec-13 03:17N 18°11' W 064°44'414.1
2018-Dec-13 03:00N 18°11' W 064°48'713.5
2018-Dec-13 02:30N 18°15' W 064°54'83 4.3
2018-Dec-12 07:00N 18°54' W 066°12'7518.8 110 / 131016.810.8 26.021.527.0
2018-Dec-12 03:00N 19°36' W 067°18'15922.7 100 / 221018.210.8 26.521.326.8
2018-Dec-11 20:00N 21°00' W 069°42'22819.0 170 / 141017.110.8 26.022.327.2
2018-Dec-11 08:00N 22°48' W 073°18'9819.6 090 / 31016.410.8 26.023.726.9
2018-Dec-11 03:00N 23°30' W 074°54'153 8.1 340 / 51018.110.8 26.023.127.0
2018-Dec-10 08:00N 25°36' W 076°30'9519.0 220 / 301013.810.8 25.023.525.9
2018-Dec-10 03:00N 26°00' W 078°12'6520.7 210 / 301016.610.8 26.022.327.0
2018-Dec-09 23:52N 26°10' W 079°23'720.3
2018-Dec-09 23:30N 26°09' W 079°31'1020.3
2018-Dec-09 23:00N 26°08' W 079°43'1020.0
2018-Dec-09 22:30N 26°07' W 079°54'918.0
2018-Dec-09 22:00N 26°06' W 080°04'3 5.6
2018-Dec-09 21:26N 26°06' W 080°07'0 0.0
2018-Dec-09 20:50N 26°06' W 080°07'0 0.0
2018-Dec-09 20:26N 26°06' W 080°07'0 0.0
2018-Dec-09 19:53N 26°06' W 080°07'0 0.0
2018-Dec-09 19:27N 26°06' W 080°07'0 0.0
2018-Dec-09 19:00N 26°06' W 080°07'0 0.0
2018-Dec-09 18:30N 26°06' W 080°07'0 0.0
2018-Dec-09 18:00N 26°06' W 080°07'0 0.0
2018-Dec-09 17:30N 26°06' W 080°07'0 0.0
2018-Dec-09 17:00N 26°06' W 080°07'0 0.0
2018-Dec-09 16:30N 26°06' W 080°07'0 0.0
2018-Dec-09 16:00N 26°06' W 080°07'0 0.0
2018-Dec-09 15:30N 26°06' W 080°07'0 0.0
2018-Dec-09 15:00N 26°06' W 080°07'0 0.0
2018-Dec-09 14:30N 26°06' W 080°07'0 0.0
2018-Dec-09 14:00N 26°06' W 080°07'0 0.0
2018-Dec-09 13:30N 26°06' W 080°07'0 0.0
2018-Dec-09 13:00N 26°06' W 080°07'0 0.0
2018-Dec-09 12:30N 26°06' W 080°07'0 0.0
2018-Dec-09 12:00N 26°06' W 080°07'0 0.0
2018-Dec-09 11:30N 26°06' W 080°07'0 0.0
2018-Dec-09 11:00N 26°06' W 080°07'0 0.3
2018-Dec-09 10:31N 26°06' W 080°07'4 7.1
2018-Dec-09 10:01N 26°06' W 080°03'5 9.9
2018-Dec-09 09:31N 26°06' W 079°58'612.6
2018-Dec-09 09:00N 26°02' W 079°52'816.1
2018-Dec-09 08:30N 25°54' W 079°51'917.2
2018-Dec-09 08:00N 25°45' W 079°51'917.6
2018-Dec-09 07:31N 25°36' W 079°51'917.3
2018-Dec-09 07:00N 25°28' W 079°53'917.7
2018-Dec-09 06:30N 25°19' W 079°54'3517.4
2018-Dec-09 04:28N 24°49' W 080°14'1517.1
2018-Dec-09 03:35N 24°37' W 080°25'317.2
2018-Dec-09 03:25N 24°35' W 080°27'614.7
2018-Dec-09 03:00N 24°30' W 080°24'12517.9 120 / 251020.710.8 25.022.827.0
2018-Dec-08 20:00N 23°30' W 082°24'21718.1 080 / 201017.610.8 29.022.427.0
2018-Dec-08 08:00N 21°42' W 085°48'8919.4 080 / 201017.510.8 26.021.527.4
2018-Dec-08 03:25N 20°38' W 086°54'820.1
2018-Dec-08 03:00N 20°31' W 086°59'3 4.8
2018-Dec-08 02:28N 20°29' W 086°59'0 0.0
2018-Dec-08 01:58N 20°29' W 086°59'0 0.0
2018-Dec-08 01:28N 20°29' W 086°59'0 0.0
2018-Dec-08 00:56N 20°29' W 086°59'0 0.0
2018-Dec-08 00:30N 20°29' W 086°59'0 0.0
2018-Dec-08 00:00N 20°29' W 086°59'0 0.0
2018-Dec-07 23:30N 20°29' W 086°59'0 0.0
2018-Dec-07 23:00N 20°29' W 086°59'0 0.0
2018-Dec-07 22:30N 20°29' W 086°59'0 0.0
2018-Dec-07 22:00N 20°29' W 086°59'0 0.0
2018-Dec-07 21:30N 20°29' W 086°59'0 0.0
2018-Dec-07 21:00N 20°29' W 086°59'0 0.0
2018-Dec-07 20:30N 20°29' W 086°59'0 0.0
2018-Dec-07 20:00N 20°29' W 086°59'0 0.0
2018-Dec-07 19:27N 20°29' W 086°59'0 0.0
2018-Dec-07 19:00N 20°29' W 086°59'0 0.0
2018-Dec-07 18:30N 20°29' W 086°59'0 0.0
2018-Dec-07 17:59N 20°29' W 086°59'0 0.0
2018-Dec-07 17:29N 20°29' W 086°59'0 0.0
2018-Dec-07 16:58N 20°29' W 086°59'0 0.0
2018-Dec-07 16:28N 20°29' W 086°59'0 0.0
2018-Dec-07 15:56N 20°29' W 086°59'0 0.0
2018-Dec-07 15:28N 20°29' W 086°59'0 0.0
2018-Dec-07 15:00N 20°29' W 086°59'0 0.8
2018-Dec-07 14:30N 20°29' W 086°59'4 8.8
2018-Dec-07 14:01N 20°33' W 086°59'11318.8
2018-Dec-07 08:00N 20°12' W 085°00'   050 / 271018.810.8 26.023.127.7
Track history (hours):
 
Tides and Currents Weather Stations Pressure Air Temp Water Temp Dewpoint Dewpoint Depression Visibility Wind Speed Wind Dir Waves Ship Positions

Regal Princess

Last reported at 2018-Dec-17 08:00 UTC. Time now 2018-Dec-17 20:07 UTC.
Position N 25°36' W 076°36'.

Length 330 m; draft 8.5 m.

Type: Passenger vessel. MMSI: 310674000.

Wind from 350 at 13 knots

Barometer 1017.2 mb
Air temperature 23.5 ° C
Visibility: greater than 10.8 NM
Dewpoint 16.9 ° C
Water temperature 25.5 ° C

Date/timePositionNaut miles runAvg speedWind from/ knotsBaromVisibWave heightAir tempDewpointWater temp
2018-Dec-17 08:00N 25°36' W 076°36'5513.8 350 / 131017.210.8 23.516.925.5
2018-Dec-17 04:00N 25°48' W 077°36'9821.9 310 / 91017.710.8 22.419.426.3
2018-Dec-16 23:31N 26°10' W 079°22'017.2
2018-Dec-16 23:30N 26°10' W 079°22'918.5
2018-Dec-16 23:00N 26°09' W 079°32'1019.4
2018-Dec-16 22:30N 26°08' W 079°43'1019.5
2018-Dec-16 22:00N 26°07' W 079°54'917.0
2018-Dec-16 21:30N 26°06' W 080°03'3 6.9
2018-Dec-16 21:00N 26°06' W 080°07'0 0.0
2018-Dec-16 20:30N 26°06' W 080°07'0 0.0
2018-Dec-16 20:00N 26°06' W 080°07'0 0.0
2018-Dec-16 19:30N 26°06' W 080°07'0 0.0
2018-Dec-16 19:00N 26°06' W 080°07'0 0.0
2018-Dec-16 18:30N 26°06' W 080°07'0 0.0
2018-Dec-16 17:48N 26°06' W 080°07'0 0.0
2018-Dec-16 17:18N 26°06' W 080°07'0 0.0
2018-Dec-16 16:51N 26°06' W 080°07'0 0.0
2018-Dec-16 16:24N 26°06' W 080°07'0 0.0
2018-Dec-16 15:54N 26°06' W 080°07'0 0.0
2018-Dec-16 15:30N 26°06' W 080°07'0 0.0
2018-Dec-16 14:51N 26°06' W 080°07'0 0.0
2018-Dec-16 14:24N 26°06' W 080°07'0 0.0
2018-Dec-16 13:54N 26°06' W 080°07'0 0.0
2018-Dec-16 13:27N 26°06' W 080°07'0 0.0
2018-Dec-16 12:57N 26°06' W 080°07'0 0.0
2018-Dec-16 12:30N 26°06' W 080°07'0 0.0
2018-Dec-16 11:57N 26°06' W 080°07'0 0.0
2018-Dec-16 11:27N 26°06' W 080°07'0 0.0
2018-Dec-16 10:57N 26°06' W 080°07'0 0.6
2018-Dec-16 10:30N 26°05' W 080°07'4 8.1
2018-Dec-16 10:00N 26°06' W 080°03'611.8
2018-Dec-16 09:30N 26°06' W 079°56'713.9
2018-Dec-16 09:00N 26°07' W 079°48'713.7
2018-Dec-16 08:30N 26°08' W 079°41'714.0
2018-Dec-16 08:00N 26°09' W 079°33'4275.6
2018-Dec-16 08:00N 26°06' W 079°30'612.0 310 / 91017.710.8 22.419.426.3
2018-Dec-16 07:29N 26°10' W 079°25'814.3
2018-Dec-16 06:57N 26°10' W 079°17'17314.4
2018-Dec-15 19:00N 25°24' W 076°12'44018.3 200 / 181017.610.8 26.523.625.7
2018-Dec-14 19:00N 21°42' W 069°18'21919.9 090 / 251019.810.8 27.022.626.6
2018-Dec-14 08:00N 19°54' W 065°54'9619.2 080 / 271018.310.8 25.522.426.8
2018-Dec-14 03:00N 19°00' W 064°30'2121.1 060 / 281022.510.8 26.821.126.8
2018-Dec-14 02:00N 18°50' W 064°11'1420.1
2018-Dec-14 01:18N 18°41' W 063°59'4619.9
2018-Dec-13 22:59N 18°11' W 063°22'1819.6
2018-Dec-13 22:03N 18°00' W 063°07'216.4
2018-Dec-13 21:55N 18°00' W 063°04'2 3.3
2018-Dec-13 21:26N 18°01' W 063°03'0 0.0
2018-Dec-13 20:44N 18°01' W 063°03'0 0.0
2018-Dec-13 20:17N 18°01' W 063°03'0 0.0
2018-Dec-13 19:59N 18°01' W 063°03'0 0.0
2018-Dec-13 19:29N 18°01' W 063°03'0 0.0
2018-Dec-13 18:59N 18°01' W 063°03'0 0.0
2018-Dec-13 18:17N 18°01' W 063°03'0 0.0
2018-Dec-13 17:50N 18°01' W 063°03'0 0.0
2018-Dec-13 17:20N 18°01' W 063°03'0 0.0
2018-Dec-13 16:53N 18°01' W 063°03'0 0.0
2018-Dec-13 16:05N 18°01' W 063°03'0 0.0
2018-Dec-13 15:53N 18°01' W 063°03'0 0.0
2018-Dec-13 15:23N 18°01' W 063°03'0 0.0
2018-Dec-13 14:23N 18°01' W 063°03'0 0.0
2018-Dec-13 13:53N 18°01' W 063°03'0 0.0
2018-Dec-13 12:56N 18°01' W 063°03'0 0.0
2018-Dec-13 11:56N 18°01' W 063°03'0 0.0
2018-Dec-13 11:23N 18°01' W 063°03'0 0.0
2018-Dec-13 10:59N 18°01' W 063°03'0 0.4
2018-Dec-13 10:30N 18°00' W 063°03'5 7.4
2018-Dec-13 09:49N 17°60' W 063°08'1214.3
2018-Dec-13 08:57N 18°01' W 063°21'1514.2
2018-Dec-13 07:54N 18°03' W 063°37'1112.1
2018-Dec-13 07:00N 18°00' W 063°48'5514.7 080 / 201015.410.8 26.019.027.0
2018-Dec-13 03:17N 18°11' W 064°44'414.1
2018-Dec-13 03:00N 18°11' W 064°48'713.5
2018-Dec-13 02:30N 18°15' W 064°54'83 4.3
2018-Dec-12 07:00N 18°54' W 066°12'7518.8 110 / 131016.810.8 26.021.527.0
2018-Dec-12 03:00N 19°36' W 067°18'15922.7 100 / 221018.210.8 26.521.326.8
2018-Dec-11 20:00N 21°00' W 069°42'22819.0 170 / 141017.110.8 26.022.327.2
2018-Dec-11 08:00N 22°48' W 073°18'9819.6 090 / 31016.410.8 26.023.726.9
2018-Dec-11 03:00N 23°30' W 074°54'153 8.1 340 / 51018.110.8 26.023.127.0
2018-Dec-10 08:00N 25°36' W 076°30'9519.0 220 / 301013.810.8 25.023.525.9
2018-Dec-10 03:00N 26°00' W 078°12'6520.7 210 / 301016.610.8 26.022.327.0
2018-Dec-09 23:52N 26°10' W 079°23'720.3
2018-Dec-09 23:30N 26°09' W 079°31'1020.3
2018-Dec-09 23:00N 26°08' W 079°43'1020.0
2018-Dec-09 22:30N 26°07' W 079°54'918.0
2018-Dec-09 22:00N 26°06' W 080°04'3 5.6
2018-Dec-09 21:26N 26°06' W 080°07'0 0.0
2018-Dec-09 20:50N 26°06' W 080°07'0 0.0
2018-Dec-09 20:26N 26°06' W 080°07'0 0.0
2018-Dec-09 19:53N 26°06' W 080°07'0 0.0
2018-Dec-09 19:27N 26°06' W 080°07'0 0.0
2018-Dec-09 19:00N 26°06' W 080°07'0 0.0
2018-Dec-09 18:30N 26°06' W 080°07'0 0.0
2018-Dec-09 18:00N 26°06' W 080°07'0 0.0
2018-Dec-09 17:30N 26°06' W 080°07'0 0.0
2018-Dec-09 17:00N 26°06' W 080°07'0 0.0
2018-Dec-09 16:30N 26°06' W 080°07'0 0.0
2018-Dec-09 16:00N 26°06' W 080°07'0 0.0
2018-Dec-09 15:30N 26°06' W 080°07'0 0.0
2018-Dec-09 15:00N 26°06' W 080°07'0 0.0
2018-Dec-09 14:30N 26°06' W 080°07'0 0.0
2018-Dec-09 14:00N 26°06' W 080°07'0 0.0
2018-Dec-09 13:30N 26°06' W 080°07'0 0.0
2018-Dec-09 13:00N 26°06' W 080°07'0 0.0
2018-Dec-09 12:30N 26°06' W 080°07'0 0.0
2018-Dec-09 12:00N 26°06' W 080°07'0 0.0
2018-Dec-09 11:30N 26°06' W 080°07'0 0.0
2018-Dec-09 11:00N 26°06' W 080°07'0 0.3
2018-Dec-09 10:31N 26°06' W 080°07'4 7.1
2018-Dec-09 10:01N 26°06' W 080°03'5 9.9
2018-Dec-09 09:31N 26°06' W 079°58'612.6
2018-Dec-09 09:00N 26°02' W 079°52'816.1
2018-Dec-09 08:30N 25°54' W 079°51'917.2
2018-Dec-09 08:00N 25°45' W 079°51'917.6
2018-Dec-09 07:31N 25°36' W 079°51'917.3
2018-Dec-09 07:00N 25°28' W 079°53'917.7
2018-Dec-09 06:30N 25°19' W 079°54'3517.4
2018-Dec-09 04:28N 24°49' W 080°14'1517.1
2018-Dec-09 03:35N 24°37' W 080°25'317.2
2018-Dec-09 03:25N 24°35' W 080°27'614.7
2018-Dec-09 03:00N 24°30' W 080°24'12517.9 120 / 251020.710.8 25.022.827.0
2018-Dec-08 20:00N 23°30' W 082°24'21718.1 080 / 201017.610.8 29.022.427.0
2018-Dec-08 08:00N 21°42' W 085°48'8919.4 080 / 201017.510.8 26.021.527.4
2018-Dec-08 03:25N 20°38' W 086°54'820.1
2018-Dec-08 03:00N 20°31' W 086°59'3 4.8
2018-Dec-08 02:28N 20°29' W 086°59'0 0.0
2018-Dec-08 01:58N 20°29' W 086°59'0 0.0
2018-Dec-08 01:28N 20°29' W 086°59'0 0.0
2018-Dec-08 00:56N 20°29' W 086°59'0 0.0
2018-Dec-08 00:30N 20°29' W 086°59'0 0.0
2018-Dec-08 00:00N 20°29' W 086°59'0 0.0
2018-Dec-07 23:30N 20°29' W 086°59'0 0.0
2018-Dec-07 23:00N 20°29' W 086°59'0 0.0
2018-Dec-07 22:30N 20°29' W 086°59'0 0.0
2018-Dec-07 22:00N 20°29' W 086°59'0 0.0
2018-Dec-07 21:30N 20°29' W 086°59'0 0.0
2018-Dec-07 21:00N 20°29' W 086°59'0 0.0
2018-Dec-07 20:30N 20°29' W 086°59'0 0.0
2018-Dec-07 20:00N 20°29' W 086°59'0 0.0
2018-Dec-07 19:27N 20°29' W 086°59'0 0.0
2018-Dec-07 19:00N 20°29' W 086°59'0 0.0
2018-Dec-07 18:30N 20°29' W 086°59'0 0.0
2018-Dec-07 17:59N 20°29' W 086°59'0 0.0
2018-Dec-07 17:29N 20°29' W 086°59'0 0.0
2018-Dec-07 16:58N 20°29' W 086°59'0 0.0
2018-Dec-07 16:28N 20°29' W 086°59'0 0.0
2018-Dec-07 15:56N 20°29' W 086°59'0 0.0
2018-Dec-07 15:28N 20°29' W 086°59'0 0.0
2018-Dec-07 15:00N 20°29' W 086°59'0 0.8
2018-Dec-07 14:30N 20°29' W 086°59'4 8.8
2018-Dec-07 14:01N 20°33' W 086°59'11318.8
2018-Dec-07 08:00N 20°12' W 085°00'   050 / 271018.810.8 26.023.127.7

Dump ship's entire track history